sensor_id;sensor_type;location;lat;lon;timestamp;temperature;humidity
12833;DHT22;6483;51.310;4.462;2022-10-12T00:01:00;4.80;99.90
12833;DHT22;6483;51.310;4.462;2022-10-12T00:03:26;4.60;99.90
12833;DHT22;6483;51.310;4.462;2022-10-12T00:06:18;4.10;99.90
12833;DHT22;6483;51.310;4.462;2022-10-12T00:08:48;4.10;99.90
12833;DHT22;6483;51.310;4.462;2022-10-12T00:11:17;4.20;99.90
12833;DHT22;6483;51.310;4.462;2022-10-12T00:13:47;5.40;99.90
12833;DHT22;6483;51.310;4.462;2022-10-12T00:16:14;4.20;99.90
12833;DHT22;6483;51.310;4.462;2022-10-12T00:18:41;4.00;99.90
12833;DHT22;6483;51.310;4.462;2022-10-12T00:21:12;5.50;99.90
12833;DHT22;6483;51.310;4.462;2022-10-12T00:23:41;4.00;99.90
12833;DHT22;6483;51.310;4.462;2022-10-12T00:26:11;4.00;99.90
12833;DHT22;6483;51.310;4.462;2022-10-12T00:28:37;5.60;99.90
12833;DHT22;6483;51.310;4.462;2022-10-12T00:31:12;5.30;99.90
12833;DHT22;6483;51.310;4.462;2022-10-12T00:33:39;4.80;99.90
12833;DHT22;6483;51.310;4.462;2022-10-12T00:36:25;5.10;99.90
12833;DHT22;6483;51.310;4.462;2022-10-12T00:38:57;4.30;99.90
12833;DHT22;6483;51.310;4.462;2022-10-12T00:41:30;4.00;99.90
12833;DHT22;6483;51.310;4.462;2022-10-12T00:43:59;4.10;99.90
12833;DHT22;6483;51.310;4.462;2022-10-12T00:46:43;4.00;99.90
12833;DHT22;6483;51.310;4.462;2022-10-12T00:49:15;3.90;99.90
12833;DHT22;6483;51.310;4.462;2022-10-12T00:51:45;3.80;99.90
12833;DHT22;6483;51.310;4.462;2022-10-12T00:54:16;4.10;99.90
12833;DHT22;6483;51.310;4.462;2022-10-12T00:56:46;6.20;99.90
12833;DHT22;6483;51.310;4.462;2022-10-12T00:59:29;5.40;99.90
12833;DHT22;6483;51.310;4.462;2022-10-12T01:01:56;3.90;99.90
12833;DHT22;6483;51.310;4.462;2022-10-12T01:04:22;3.80;99.90
12833;DHT22;6483;51.310;4.462;2022-10-12T01:06:50;5.10;99.90
12833;DHT22;6483;51.310;4.462;2022-10-12T01:09:19;3.70;99.90
12833;DHT22;6483;51.310;4.462;2022-10-12T01:11:45;5.90;99.90
12833;DHT22;6483;51.310;4.462;2022-10-12T01:14:11;3.50;99.90
12833;DHT22;6483;51.310;4.462;2022-10-12T01:16:49;5.20;99.90
12833;DHT22;6483;51.310;4.462;2022-10-12T01:22:04;3.70;99.90
12833;DHT22;6483;51.310;4.462;2022-10-12T01:24:52;3.90;99.90
12833;DHT22;6483;51.310;4.462;2022-10-12T01:38:20;3.60;99.90
12833;DHT22;6483;51.310;4.462;2022-10-12T01:41:09;3.40;99.90
12833;DHT22;6483;51.310;4.462;2022-10-12T01:43:41;3.30;99.90
12833;DHT22;6483;51.310;4.462;2022-10-12T01:48:53;3.20;99.90
12833;DHT22;6483;51.310;4.462;2022-10-12T01:54:25;3.30;99.90
12833;DHT22;6483;51.310;4.462;2022-10-12T02:03:21;3.20;99.90
12833;DHT22;6483;51.310;4.462;2022-10-12T02:06:28;3.10;99.90
12833;DHT22;6483;51.310;4.462;2022-10-12T02:12:27;3.10;99.90
12833;DHT22;6483;51.310;4.462;2022-10-12T02:15:00;3.10;99.90
12833;DHT22;6483;51.310;4.462;2022-10-12T02:17:37;3.00;99.90
12833;DHT22;6483;51.310;4.462;2022-10-12T02:20:27;3.00;99.90
12833;DHT22;6483;51.310;4.462;2022-10-12T02:22:53;3.00;99.90
12833;DHT22;6483;51.310;4.462;2022-10-12T02:25:22;3.20;99.90
12833;DHT22;6483;51.310;4.462;2022-10-12T02:28:10;5.30;99.90
12833;DHT22;6483;51.310;4.462;2022-10-12T02:30:59;3.10;99.90
12833;DHT22;6483;51.310;4.462;2022-10-12T02:33:42;3.10;99.90
12833;DHT22;6483;51.310;4.462;2022-10-12T02:36:12;3.10;99.90
12833;DHT22;6483;51.310;4.462;2022-10-12T02:38:54;3.10;99.90
12833;DHT22;6483;51.310;4.462;2022-10-12T02:41:25;3.20;99.90
12833;DHT22;6483;51.310;4.462;2022-10-12T02:44:22;3.20;99.90
12833;DHT22;6483;51.310;4.462;2022-10-12T02:46:51;3.40;99.90
12833;DHT22;6483;51.310;4.462;2022-10-12T02:49:19;3.50;99.90
12833;DHT22;6483;51.310;4.462;2022-10-12T02:51:49;5.00;99.90
12833;DHT22;6483;51.310;4.462;2022-10-12T02:54:18;3.50;99.90
12833;DHT22;6483;51.310;4.462;2022-10-12T02:56:45;4.20;99.90
12833;DHT22;6483;51.310;4.462;2022-10-12T02:59:16;4.80;99.90
12833;DHT22;6483;51.310;4.462;2022-10-12T03:01:42;4.10;99.90
12833;DHT22;6483;51.310;4.462;2022-10-12T03:04:09;4.40;99.90
12833;DHT22;6483;51.310;4.462;2022-10-12T03:06:41;3.50;99.90
12833;DHT22;6483;51.310;4.462;2022-10-12T03:09:10;3.90;99.90
12833;DHT22;6483;51.310;4.462;2022-10-12T03:11:36;5.50;99.90
12833;DHT22;6483;51.310;4.462;2022-10-12T03:14:10;4.70;99.90
12833;DHT22;6483;51.310;4.462;2022-10-12T03:16:36;3.40;99.90
12833;DHT22;6483;51.310;4.462;2022-10-12T03:19:05;3.40;99.90
12833;DHT22;6483;51.310;4.462;2022-10-12T03:21:30;4.60;99.90
12833;DHT22;6483;51.310;4.462;2022-10-12T03:23:59;3.70;99.90
12833;DHT22;6483;51.310;4.462;2022-10-12T03:26:24;3.50;99.90
12833;DHT22;6483;51.310;4.462;2022-10-12T03:28:50;5.40;99.90
12833;DHT22;6483;51.310;4.462;2022-10-12T03:31:17;3.50;99.90
12833;DHT22;6483;51.310;4.462;2022-10-12T03:33:43;3.50;99.90
12833;DHT22;6483;51.310;4.462;2022-10-12T03:36:09;4.20;99.90
12833;DHT22;6483;51.310;4.462;2022-10-12T03:38:37;4.40;99.90
12833;DHT22;6483;51.310;4.462;2022-10-12T03:41:22;5.10;99.90
12833;DHT22;6483;51.310;4.462;2022-10-12T03:43:48;3.80;99.90
12833;DHT22;6483;51.310;4.462;2022-10-12T03:46:16;3.80;99.90
12833;DHT22;6483;51.310;4.462;2022-10-12T03:48:42;5.40;99.90
12833;DHT22;6483;51.310;4.462;2022-10-12T03:51:08;4.70;99.90
12833;DHT22;6483;51.310;4.462;2022-10-12T03:53:35;3.80;99.90
12833;DHT22;6483;51.310;4.462;2022-10-12T03:56:01;3.90;99.90
12833;DHT22;6483;51.310;4.462;2022-10-12T03:58:26;4.30;99.90
12833;DHT22;6483;51.310;4.462;2022-10-12T04:00:55;3.90;99.90
12833;DHT22;6483;51.310;4.462;2022-10-12T04:03:23;3.90;99.90
12833;DHT22;6483;51.310;4.462;2022-10-12T04:05:56;4.10;99.90
12833;DHT22;6483;51.310;4.462;2022-10-12T04:08:23;4.30;99.90
12833;DHT22;6483;51.310;4.462;2022-10-12T04:10:52;3.80;99.90
12833;DHT22;6483;51.310;4.462;2022-10-12T04:13:18;2.20;99.90
12833;DHT22;6483;51.310;4.462;2022-10-12T04:15:45;4.70;99.90
12833;DHT22;6483;51.310;4.462;2022-10-12T04:18:11;4.10;99.90
12833;DHT22;6483;51.310;4.462;2022-10-12T04:20:37;4.40;99.90
12833;DHT22;6483;51.310;4.462;2022-10-12T04:23:03;6.10;99.90
12833;DHT22;6483;51.310;4.462;2022-10-12T04:25:29;4.20;99.90
12833;DHT22;6483;51.310;4.462;2022-10-12T04:27:58;3.80;99.90
12833;DHT22;6483;51.310;4.462;2022-10-12T04:30:24;4.40;99.90
12833;DHT22;6483;51.310;4.462;2022-10-12T04:32:52;4.00;99.90
12833;DHT22;6483;51.310;4.462;2022-10-12T04:35:19;4.40;99.90
12833;DHT22;6483;51.310;4.462;2022-10-12T04:37:44;6.00;99.90
12833;DHT22;6483;51.310;4.462;2022-10-12T04:40:10;5.20;99.90
12833;DHT22;6483;51.310;4.462;2022-10-12T04:42:36;4.30;99.90
12833;DHT22;6483;51.310;4.462;2022-10-12T04:45:02;6.00;99.90
12833;DHT22;6483;51.310;4.462;2022-10-12T04:47:32;3.70;99.90
12833;DHT22;6483;51.310;4.462;2022-10-12T04:50:00;3.70;99.90
12833;DHT22;6483;51.310;4.462;2022-10-12T04:52:34;4.40;99.90
12833;DHT22;6483;51.310;4.462;2022-10-12T04:55:00;3.60;99.90
12833;DHT22;6483;51.310;4.462;2022-10-12T04:57:28;3.60;99.90
12833;DHT22;6483;51.310;4.462;2022-10-12T04:59:54;3.60;99.90
12833;DHT22;6483;51.310;4.462;2022-10-12T05:02:22;5.60;99.90
12833;DHT22;6483;51.310;4.462;2022-10-12T05:05:30;3.70;99.90
12833;DHT22;6483;51.310;4.462;2022-10-12T05:07:37;3.70;99.90
12833;DHT22;6483;51.310;4.462;2022-10-12T05:10:04;3.50;99.90
12833;DHT22;6483;51.310;4.462;2022-10-12T05:12:30;3.40;99.90
12833;DHT22;6483;51.310;4.462;2022-10-12T05:14:55;3.40;99.90
12833;DHT22;6483;51.310;4.462;2022-10-12T05:17:24;5.60;99.90
12833;DHT22;6483;51.310;4.462;2022-10-12T05:19:50;3.30;99.90
12833;DHT22;6483;51.310;4.462;2022-10-12T05:22:15;3.50;99.90
12833;DHT22;6483;51.310;4.462;2022-10-12T05:24:43;5.50;99.90
12833;DHT22;6483;51.310;4.462;2022-10-12T05:27:09;3.30;99.90
12833;DHT22;6483;51.310;4.462;2022-10-12T05:29:38;4.60;99.90
12833;DHT22;6483;51.310;4.462;2022-10-12T05:32:15;4.80;99.90
12833;DHT22;6483;51.310;4.462;2022-10-12T05:34:44;3.10;99.90
12833;DHT22;6483;51.310;4.462;2022-10-12T05:37:10;3.10;99.90
12833;DHT22;6483;51.310;4.462;2022-10-12T05:39:37;3.10;99.90
12833;DHT22;6483;51.310;4.462;2022-10-12T05:42:03;3.10;99.90
12833;DHT22;6483;51.310;4.462;2022-10-12T05:44:28;3.10;99.90
12833;DHT22;6483;51.310;4.462;2022-10-12T05:46:54;4.20;99.90
12833;DHT22;6483;51.310;4.462;2022-10-12T05:49:21;3.00;99.90
12833;DHT22;6483;51.310;4.462;2022-10-12T05:51:46;3.00;99.90
12833;DHT22;6483;51.310;4.462;2022-10-12T05:54:13;3.00;99.90
12833;DHT22;6483;51.310;4.462;2022-10-12T05:56:42;3.00;99.90
12833;DHT22;6483;51.310;4.462;2022-10-12T05:59:08;2.90;99.90
12833;DHT22;6483;51.310;4.462;2022-10-12T06:01:37;2.90;99.90
12833;DHT22;6483;51.310;4.462;2022-10-12T06:04:03;2.90;99.90
12833;DHT22;6483;51.310;4.462;2022-10-12T06:06:29;3.70;99.90
12833;DHT22;6483;51.310;4.462;2022-10-12T06:08:58;2.90;99.90
12833;DHT22;6483;51.310;4.462;2022-10-12T06:11:23;2.90;99.90
12833;DHT22;6483;51.310;4.462;2022-10-12T06:13:49;3.10;99.90
12833;DHT22;6483;51.310;4.462;2022-10-12T06:16:17;3.20;99.90
12833;DHT22;6483;51.310;4.462;2022-10-12T06:18:46;3.60;99.90
12833;DHT22;6483;51.310;4.462;2022-10-12T06:21:12;3.70;99.90
12833;DHT22;6483;51.310;4.462;2022-10-12T06:23:37;4.60;99.90
12833;DHT22;6483;51.310;4.462;2022-10-12T06:26:03;4.60;99.90
12833;DHT22;6483;51.310;4.462;2022-10-12T06:28:29;4.40;99.90
12833;DHT22;6483;51.310;4.462;2022-10-12T06:30:57;4.00;99.90
12833;DHT22;6483;51.310;4.462;2022-10-12T06:33:23;5.00;99.90
12833;DHT22;6483;51.310;4.462;2022-10-12T06:35:49;3.20;99.90
12833;DHT22;6483;51.310;4.462;2022-10-12T06:38:18;4.60;99.90
12833;DHT22;6483;51.310;4.462;2022-10-12T06:40:44;3.20;99.90
12833;DHT22;6483;51.310;4.462;2022-10-12T06:43:10;3.20;99.90
12833;DHT22;6483;51.310;4.462;2022-10-12T06:45:38;3.40;99.90
12833;DHT22;6483;51.310;4.462;2022-10-12T06:48:05;4.00;99.90
12833;DHT22;6483;51.310;4.462;2022-10-12T06:50:34;3.40;99.90
12833;DHT22;6483;51.310;4.462;2022-10-12T06:53:00;3.40;99.90
12833;DHT22;6483;51.310;4.462;2022-10-12T06:55:29;5.70;99.90
12833;DHT22;6483;51.310;4.462;2022-10-12T06:57:55;3.60;99.90
12833;DHT22;6483;51.310;4.462;2022-10-12T07:00:21;5.60;99.90
12833;DHT22;6483;51.310;4.462;2022-10-12T07:02:50;3.70;99.90
12833;DHT22;6483;51.310;4.462;2022-10-12T07:05:21;3.80;99.90
12833;DHT22;6483;51.310;4.462;2022-10-12T07:07:47;3.90;99.90
12833;DHT22;6483;51.310;4.462;2022-10-12T07:10:13;4.10;99.90
12833;DHT22;6483;51.310;4.462;2022-10-12T07:12:38;5.00;99.90
12833;DHT22;6483;51.310;4.462;2022-10-12T07:15:06;5.70;99.90
12833;DHT22;6483;51.310;4.462;2022-10-12T07:17:34;4.60;99.90
12833;DHT22;6483;51.310;4.462;2022-10-12T07:20:03;5.10;99.90
12833;DHT22;6483;51.310;4.462;2022-10-12T07:22:28;5.00;99.90
12833;DHT22;6483;51.310;4.462;2022-10-12T07:24:54;5.20;99.90
12833;DHT22;6483;51.310;4.462;2022-10-12T07:27:20;6.00;99.90
12833;DHT22;6483;51.310;4.462;2022-10-12T07:29:45;5.90;99.90
12833;DHT22;6483;51.310;4.462;2022-10-12T07:32:12;8.40;99.90
12833;DHT22;6483;51.310;4.462;2022-10-12T07:34:38;6.40;99.90
12833;DHT22;6483;51.310;4.462;2022-10-12T07:37:04;7.30;99.90
12833;DHT22;6483;51.310;4.462;2022-10-12T07:39:29;9.10;99.90
12833;DHT22;6483;51.310;4.462;2022-10-12T07:41:55;9.30;99.90
12833;DHT22;6483;51.310;4.462;2022-10-12T07:44:27;7.60;99.90
12833;DHT22;6483;51.310;4.462;2022-10-12T07:46:53;7.50;99.90
12833;DHT22;6483;51.310;4.462;2022-10-12T07:49:19;7.80;99.90
12833;DHT22;6483;51.310;4.462;2022-10-12T07:52:08;8.70;99.90
12833;DHT22;6483;51.310;4.462;2022-10-12T07:54:34;9.80;99.90
12833;DHT22;6483;51.310;4.462;2022-10-12T07:56:59;9.10;99.90
12833;DHT22;6483;51.310;4.462;2022-10-12T07:59:26;10.60;99.90
12833;DHT22;6483;51.310;4.462;2022-10-12T08:01:51;8.60;99.90
12833;DHT22;6483;51.310;4.462;2022-10-12T08:04:17;9.30;99.90
12833;DHT22;6483;51.310;4.462;2022-10-12T08:06:43;9.20;99.90
12833;DHT22;6483;51.310;4.462;2022-10-12T08:09:08;8.90;99.90
12833;DHT22;6483;51.310;4.462;2022-10-12T08:11:40;10.80;99.90
12833;DHT22;6483;51.310;4.462;2022-10-12T08:14:12;8.80;99.90
12833;DHT22;6483;51.310;4.462;2022-10-12T08:16:38;9.40;99.90
12833;DHT22;6483;51.310;4.462;2022-10-12T08:19:03;9.20;99.90
12833;DHT22;6483;51.310;4.462;2022-10-12T08:21:29;9.00;99.90
12833;DHT22;6483;51.310;4.462;2022-10-12T08:23:55;8.90;99.90
12833;DHT22;6483;51.310;4.462;2022-10-12T08:26:20;8.80;99.90
12833;DHT22;6483;51.310;4.462;2022-10-12T08:28:46;8.90;99.90
12833;DHT22;6483;51.310;4.462;2022-10-12T08:31:14;9.10;99.90
12833;DHT22;6483;51.310;4.462;2022-10-12T08:33:44;9.30;99.90
12833;DHT22;6483;51.310;4.462;2022-10-12T08:36:10;9.50;99.90
12833;DHT22;6483;51.310;4.462;2022-10-12T08:38:36;10.40;99.90
12833;DHT22;6483;51.310;4.462;2022-10-12T08:46:24;13.00;99.90
12833;DHT22;6483;51.310;4.462;2022-10-12T08:49:20;13.00;99.90
12833;DHT22;6483;51.310;4.462;2022-10-12T08:51:58;14.00;99.90
12833;DHT22;6483;51.310;4.462;2022-10-12T08:54:29;15.20;99.90
12833;DHT22;6483;51.310;4.462;2022-10-12T08:56:56;15.70;99.90
12833;DHT22;6483;51.310;4.462;2022-10-12T08:59:23;16.70;99.90
12833;DHT22;6483;51.310;4.462;2022-10-12T09:08:26;15.40;99.90
12833;DHT22;6483;51.310;4.462;2022-10-12T09:11:22;16.60;99.90
12833;DHT22;6483;51.310;4.462;2022-10-12T09:14:06;17.30;99.90
12833;DHT22;6483;51.310;4.462;2022-10-12T09:16:40;17.40;99.90
12833;DHT22;6483;51.310;4.462;2022-10-12T09:19:43;17.20;99.90
12833;DHT22;6483;51.310;4.462;2022-10-12T09:22:17;17.10;99.90
12833;DHT22;6483;51.310;4.462;2022-10-12T09:24:45;17.90;99.90
12833;DHT22;6483;51.310;4.462;2022-10-12T09:27:15;17.80;99.90
12833;DHT22;6483;51.310;4.462;2022-10-12T09:29:44;18.60;99.90
12833;DHT22;6483;51.310;4.462;2022-10-12T09:35:12;19.30;99.90
12833;DHT22;6483;51.310;4.462;2022-10-12T09:37:41;19.90;99.90
12833;DHT22;6483;51.310;4.462;2022-10-12T09:40:26;21.10;99.60
12833;DHT22;6483;51.310;4.462;2022-10-12T09:42:57;22.00;96.90
12833;DHT22;6483;51.310;4.462;2022-10-12T09:45:24;22.40;95.20
12833;DHT22;6483;51.310;4.462;2022-10-12T09:48:19;22.80;94.80
12833;DHT22;6483;51.310;4.462;2022-10-12T09:50:57;22.50;93.40
12833;DHT22;6483;51.310;4.462;2022-10-12T09:56:26;23.40;93.90
12833;DHT22;6483;51.310;4.462;2022-10-12T09:58:58;22.60;91.10
12833;DHT22;6483;51.310;4.462;2022-10-12T10:01:28;22.50;92.90
12833;DHT22;6483;51.310;4.462;2022-10-12T10:04:16;23.50;91.80
12833;DHT22;6483;51.310;4.462;2022-10-12T10:06:46;22.90;91.20
12833;DHT22;6483;51.310;4.462;2022-10-12T10:09:29;23.60;90.80
12833;DHT22;6483;51.310;4.462;2022-10-12T10:11:56;24.10;90.40
12833;DHT22;6483;51.310;4.462;2022-10-12T10:14:25;22.20;91.30
12833;DHT22;6483;51.310;4.462;2022-10-12T10:16:51;21.80;92.70
12833;DHT22;6483;51.310;4.462;2022-10-12T10:19:21;22.60;93.00
12833;DHT22;6483;51.310;4.462;2022-10-12T10:21:49;24.00;92.00
12833;DHT22;6483;51.310;4.462;2022-10-12T10:24:29;24.80;90.60
12833;DHT22;6483;51.310;4.462;2022-10-12T10:27:01;26.70;87.00
12833;DHT22;6483;51.310;4.462;2022-10-12T10:29:40;26.30;77.80
12833;DHT22;6483;51.310;4.462;2022-10-12T10:32:22;26.90;76.10
12833;DHT22;6483;51.310;4.462;2022-10-12T10:35:20;26.70;74.60
12833;DHT22;6483;51.310;4.462;2022-10-12T10:37:47;26.00;72.70
12833;DHT22;6483;51.310;4.462;2022-10-12T10:40:26;23.50;76.20
12833;DHT22;6483;51.310;4.462;2022-10-12T10:43:19;21.10;81.80
12833;DHT22;6483;51.310;4.462;2022-10-12T10:45:51;20.40;89.80
12833;DHT22;6483;51.310;4.462;2022-10-12T10:48:20;20.40;91.40
12833;DHT22;6483;51.310;4.462;2022-10-12T10:50:59;20.60;92.20
12833;DHT22;6483;51.310;4.462;2022-10-12T10:53:30;20.40;92.90
12833;DHT22;6483;51.310;4.462;2022-10-12T10:58:47;20.20;94.10
12833;DHT22;6483;51.310;4.462;2022-10-12T11:04:36;21.20;91.90
12833;DHT22;6483;51.310;4.462;2022-10-12T11:09:49;20.60;92.90
12833;DHT22;6483;51.310;4.462;2022-10-12T11:12:35;20.80;93.60
12833;DHT22;6483;51.310;4.462;2022-10-12T11:15:40;21.50;93.10
12833;DHT22;6483;51.310;4.462;2022-10-12T11:21:21;20.30;93.20
12833;DHT22;6483;51.310;4.462;2022-10-12T11:24:10;21.90;93.80
12833;DHT22;6483;51.310;4.462;2022-10-12T11:27:03;22.20;92.40
12833;DHT22;6483;51.310;4.462;2022-10-12T11:29:30;21.30;92.30
12833;DHT22;6483;51.310;4.462;2022-10-12T11:32:10;21.30;92.60
12833;DHT22;6483;51.310;4.462;2022-10-12T11:34:58;22.20;92.70
12833;DHT22;6483;51.310;4.462;2022-10-12T11:37:48;22.10;92.00
12833;DHT22;6483;51.310;4.462;2022-10-12T11:40:28;21.40;92.20
12833;DHT22;6483;51.310;4.462;2022-10-12T11:43:01;20.40;93.10
12833;DHT22;6483;51.310;4.462;2022-10-12T11:45:40;20.50;93.30
12833;DHT22;6483;51.310;4.462;2022-10-12T11:48:25;20.10;93.20
12833;DHT22;6483;51.310;4.462;2022-10-12T11:50:56;19.50;94.60
12833;DHT22;6483;51.310;4.462;2022-10-12T11:53:45;19.40;95.10
12833;DHT22;6483;51.310;4.462;2022-10-12T11:56:21;19.00;96.10
12833;DHT22;6483;51.310;4.462;2022-10-12T11:58:51;19.10;97.10
12833;DHT22;6483;51.310;4.462;2022-10-12T12:04:22;21.70;95.80
12833;DHT22;6483;51.310;4.462;2022-10-12T12:06:57;23.10;92.90
12833;DHT22;6483;51.310;4.462;2022-10-12T12:09:40;22.60;91.30
12833;DHT22;6483;51.310;4.462;2022-10-12T12:12:27;21.50;92.60
12833;DHT22;6483;51.310;4.462;2022-10-12T12:17:40;19.30;95.40
12833;DHT22;6483;51.310;4.462;2022-10-12T12:23:28;18.40;99.90
12833;DHT22;6483;51.310;4.462;2022-10-12T12:26:15;18.30;99.90
12833;DHT22;6483;51.310;4.462;2022-10-12T12:28:50;18.60;99.90
12833;DHT22;6483;51.310;4.462;2022-10-12T12:31:26;19.20;99.90
12833;DHT22;6483;51.310;4.462;2022-10-12T12:34:05;19.20;98.50
12833;DHT22;6483;51.310;4.462;2022-10-12T12:36:35;18.80;97.80
12833;DHT22;6483;51.310;4.462;2022-10-12T12:39:04;18.40;98.70
12833;DHT22;6483;51.310;4.462;2022-10-12T12:41:50;18.50;98.90
12833;DHT22;6483;51.310;4.462;2022-10-12T12:44:46;19.10;98.90
12833;DHT22;6483;51.310;4.462;2022-10-12T12:49:40;20.80;97.00
12833;DHT22;6483;51.310;4.462;2022-10-12T12:52:30;22.90;95.10
12833;DHT22;6483;51.310;4.462;2022-10-12T13:04:33;23.10;90.80
12833;DHT22;6483;51.310;4.462;2022-10-12T13:18:22;22.70;90.10
12833;DHT22;6483;51.310;4.462;2022-10-12T13:20:51;22.50;90.10
12833;DHT22;6483;51.310;4.462;2022-10-12T13:23:23;23.10;90.20
12833;DHT22;6483;51.310;4.462;2022-10-12T13:25:56;23.00;90.20
12833;DHT22;6483;51.310;4.462;2022-10-12T13:28:31;23.30;89.20
12833;DHT22;6483;51.310;4.462;2022-10-12T13:31:10;23.50;87.80
12833;DHT22;6483;51.310;4.462;2022-10-12T13:37:03;24.40;87.20
12833;DHT22;6483;51.310;4.462;2022-10-12T13:39:34;22.70;88.40
12833;DHT22;6483;51.310;4.462;2022-10-12T13:42:02;21.50;90.70
12833;DHT22;6483;51.310;4.462;2022-10-12T13:44:30;20.70;91.00
12833;DHT22;6483;51.310;4.462;2022-10-12T13:47:01;20.60;92.20
12833;DHT22;6483;51.310;4.462;2022-10-12T13:49:33;20.50;92.10
12833;DHT22;6483;51.310;4.462;2022-10-12T13:52:22;20.20;92.80
12833;DHT22;6483;51.310;4.462;2022-10-12T13:54:48;19.80;94.00
12833;DHT22;6483;51.310;4.462;2022-10-12T13:57:27;19.80;93.70
12833;DHT22;6483;51.310;4.462;2022-10-12T14:03:03;20.40;95.10
12833;DHT22;6483;51.310;4.462;2022-10-12T14:05:32;22.00;93.40
12833;DHT22;6483;51.310;4.462;2022-10-12T14:08:04;22.90;91.20
12833;DHT22;6483;51.310;4.462;2022-10-12T14:10:35;22.80;91.30
12833;DHT22;6483;51.310;4.462;2022-10-12T14:13:02;23.50;91.20
12833;DHT22;6483;51.310;4.462;2022-10-12T14:15:32;23.40;89.30
12833;DHT22;6483;51.310;4.462;2022-10-12T14:17:58;23.80;87.50
12833;DHT22;6483;51.310;4.462;2022-10-12T14:20:33;24.00;84.70
12833;DHT22;6483;51.310;4.462;2022-10-12T14:23:00;24.60;83.60
12833;DHT22;6483;51.310;4.462;2022-10-12T14:25:31;24.20;82.80
12833;DHT22;6483;51.310;4.462;2022-10-12T14:28:03;24.70;82.70
12833;DHT22;6483;51.310;4.462;2022-10-12T14:30:32;25.10;81.60
12833;DHT22;6483;51.310;4.462;2022-10-12T14:33:23;24.50;79.20
12833;DHT22;6483;51.310;4.462;2022-10-12T14:35:50;22.20;82.60
12833;DHT22;6483;51.310;4.462;2022-10-12T14:38:39;20.50;87.60
12833;DHT22;6483;51.310;4.462;2022-10-12T14:42:14;19.30;92.40
12833;DHT22;6483;51.310;4.462;2022-10-12T14:44:19;19.20;95.90
12833;DHT22;6483;51.310;4.462;2022-10-12T14:47:14;19.00;96.20
12833;DHT22;6483;51.310;4.462;2022-10-12T14:49:49;18.70;96.90
12833;DHT22;6483;51.310;4.462;2022-10-12T14:53:03;18.50;98.50
12833;DHT22;6483;51.310;4.462;2022-10-12T14:55:28;18.00;98.20
12833;DHT22;6483;51.310;4.462;2022-10-12T14:57:57;17.60;99.90
12833;DHT22;6483;51.310;4.462;2022-10-12T15:00:30;17.50;99.90
12833;DHT22;6483;51.310;4.462;2022-10-12T15:02:56;17.50;99.90
12833;DHT22;6483;51.310;4.462;2022-10-12T15:05:23;17.70;99.90
12833;DHT22;6483;51.310;4.462;2022-10-12T15:07:50;17.90;99.90
12833;DHT22;6483;51.310;4.462;2022-10-12T15:10:18;17.80;99.90
12833;DHT22;6483;51.310;4.462;2022-10-12T15:12:45;17.80;99.90
12833;DHT22;6483;51.310;4.462;2022-10-12T15:15:39;17.50;99.90
12833;DHT22;6483;51.310;4.462;2022-10-12T15:18:06;17.10;99.90
12833;DHT22;6483;51.310;4.462;2022-10-12T15:20:34;15.50;99.90
12833;DHT22;6483;51.310;4.462;2022-10-12T15:23:00;16.60;99.90
12833;DHT22;6483;51.310;4.462;2022-10-12T15:28:08;16.30;99.90
12833;DHT22;6483;51.310;4.462;2022-10-12T15:30:34;16.10;99.90
12833;DHT22;6483;51.310;4.462;2022-10-12T15:33:00;15.90;99.90
12833;DHT22;6483;51.310;4.462;2022-10-12T15:35:27;15.70;99.90
12833;DHT22;6483;51.310;4.462;2022-10-12T15:37:54;15.60;99.90
12833;DHT22;6483;51.310;4.462;2022-10-12T15:40:27;15.50;99.90
12833;DHT22;6483;51.310;4.462;2022-10-12T15:42:53;15.40;99.90
12833;DHT22;6483;51.310;4.462;2022-10-12T15:45:20;14.40;99.90
12833;DHT22;6483;51.310;4.462;2022-10-12T15:47:48;15.40;99.90
12833;DHT22;6483;51.310;4.462;2022-10-12T15:50:14;15.30;99.90
12833;DHT22;6483;51.310;4.462;2022-10-12T15:52:40;15.40;99.90
12833;DHT22;6483;51.310;4.462;2022-10-12T15:55:29;15.30;99.90
12833;DHT22;6483;51.310;4.462;2022-10-12T15:57:56;15.30;99.90
12833;DHT22;6483;51.310;4.462;2022-10-12T16:00:25;15.20;99.90
12833;DHT22;6483;51.310;4.462;2022-10-12T16:02:52;15.20;99.90
12833;DHT22;6483;51.310;4.462;2022-10-12T16:05:23;15.10;99.90
12833;DHT22;6483;51.310;4.462;2022-10-12T16:07:49;15.10;99.90
12833;DHT22;6483;51.310;4.462;2022-10-12T16:10:17;15.00;99.90
12833;DHT22;6483;51.310;4.462;2022-10-12T16:12:51;14.90;99.90
12833;DHT22;6483;51.310;4.462;2022-10-12T16:15:20;14.90;99.90
12833;DHT22;6483;51.310;4.462;2022-10-12T16:17:47;14.90;99.90
12833;DHT22;6483;51.310;4.462;2022-10-12T16:20:16;14.90;99.90
12833;DHT22;6483;51.310;4.462;2022-10-12T16:22:45;14.90;99.90
12833;DHT22;6483;51.310;4.462;2022-10-12T16:25:15;15.10;99.90
12833;DHT22;6483;51.310;4.462;2022-10-12T16:27:42;15.10;99.90
12833;DHT22;6483;51.310;4.462;2022-10-12T16:30:08;15.20;99.90
12833;DHT22;6483;51.310;4.462;2022-10-12T16:32:34;15.10;99.90
12833;DHT22;6483;51.310;4.462;2022-10-12T16:35:00;15.00;99.90
12833;DHT22;6483;51.310;4.462;2022-10-12T16:37:26;14.90;99.90
12833;DHT22;6483;51.310;4.462;2022-10-12T16:39:52;14.80;99.90
12833;DHT22;6483;51.310;4.462;2022-10-12T16:42:19;14.70;99.90
12833;DHT22;6483;51.310;4.462;2022-10-12T16:44:48;14.50;99.90
12833;DHT22;6483;51.310;4.462;2022-10-12T16:47:14;14.40;99.90
12833;DHT22;6483;51.310;4.462;2022-10-12T16:49:40;14.30;99.90
12833;DHT22;6483;51.310;4.462;2022-10-12T16:52:06;14.20;99.90
12833;DHT22;6483;51.310;4.462;2022-10-12T16:54:32;14.00;99.90
12833;DHT22;6483;51.310;4.462;2022-10-12T16:56:58;13.80;99.90
12833;DHT22;6483;51.310;4.462;2022-10-12T16:59:24;13.70;99.90
12833;DHT22;6483;51.310;4.462;2022-10-12T17:01:50;13.60;99.90
12833;DHT22;6483;51.310;4.462;2022-10-12T17:04:17;13.50;99.90
12833;DHT22;6483;51.310;4.462;2022-10-12T17:06:44;13.40;99.90
12833;DHT22;6483;51.310;4.462;2022-10-12T17:09:43;13.20;99.90
12833;DHT22;6483;51.310;4.462;2022-10-12T17:12:02;12.90;99.90
12833;DHT22;6483;51.310;4.462;2022-10-12T17:14:28;12.60;99.90
12833;DHT22;6483;51.310;4.462;2022-10-12T17:16:54;12.50;99.90
12833;DHT22;6483;51.310;4.462;2022-10-12T17:19:30;12.30;99.90
12833;DHT22;6483;51.310;4.462;2022-10-12T17:22:01;12.20;99.90
12833;DHT22;6483;51.310;4.462;2022-10-12T17:24:33;12.00;99.90
12833;DHT22;6483;51.310;4.462;2022-10-12T17:27:00;11.90;99.90
12833;DHT22;6483;51.310;4.462;2022-10-12T17:29:28;11.70;99.90
12833;DHT22;6483;51.310;4.462;2022-10-12T17:31:55;11.60;99.90
12833;DHT22;6483;51.310;4.462;2022-10-12T17:34:24;11.50;99.90
12833;DHT22;6483;51.310;4.462;2022-10-12T17:36:52;11.40;99.90
12833;DHT22;6483;51.310;4.462;2022-10-12T17:39:18;11.30;99.90
12833;DHT22;6483;51.310;4.462;2022-10-12T17:41:44;11.10;99.90
12833;DHT22;6483;51.310;4.462;2022-10-12T17:44:11;11.10;99.90
12833;DHT22;6483;51.310;4.462;2022-10-12T17:46:41;10.90;99.90
12833;DHT22;6483;51.310;4.462;2022-10-12T17:49:13;11.00;99.90
12833;DHT22;6483;51.310;4.462;2022-10-12T17:51:40;10.80;99.90
12833;DHT22;6483;51.310;4.462;2022-10-12T17:54:06;10.70;99.90
12833;DHT22;6483;51.310;4.462;2022-10-12T17:56:33;10.70;99.90
12833;DHT22;6483;51.310;4.462;2022-10-12T17:59:00;12.10;99.90
12833;DHT22;6483;51.310;4.462;2022-10-12T18:01:26;10.60;99.90